Time;durP1;ratioP1;P1;durP2;ratioP2;P2;SDS_P1;SDS_P2;PMS_P1;PMS_P2;Temp;Humidity;BMP_temperature;BMP_pressure;BME280_temperature;BME280_humidity;BME280_pressure;Samples;Min_cycle;Max_cycle;Signal;HPM_P1;HPM_P2
2021/12/30 00:00:14;;;;;;;;;;;3.40;94.20;;;;;;5054298;28;19937;-67
2021/12/30 00:02:40;;;;;;;;;;;3.40;94.10;;;;;;5054212;28;20012;-67
2021/12/30 00:05:06;;;;;;;;;;;3.50;94.00;;;;;;5054187;28;19949;-66
2021/12/30 00:07:32;;;;;;;;;;;3.50;93.80;;;;;;5054133;28;20367;-67
2021/12/30 00:09:57;;;;;;;;;;;3.40;93.90;;;;;;5053791;28;19997;-67
2021/12/30 00:12:23;;;;;;;;;;;3.40;93.60;;;;;;5054034;28;19939;-67
2021/12/30 00:14:48;;;;;;;;;;;3.20;93.30;;;;;;5054007;28;19976;-67
2021/12/30 00:17:14;;;;;;;;;;;3.10;93.80;;;;;;5053923;28;20014;-67
2021/12/30 00:19:40;;;;;;;;;;;3.10;94.30;;;;;;5053867;28;20416;-67
2021/12/30 00:22:05;;;;;;;;;;;3.00;94.10;;;;;;5053793;28;19942;-67
2021/12/30 00:24:31;;;;;;;;;;;2.90;93.80;;;;;;5053752;28;19947;-67
2021/12/30 00:26:57;;;;;;;;;;;2.70;93.60;;;;;;5053586;28;19974;-67
2021/12/30 00:29:24;;;;;;;;;;;2.50;93.50;;;;;;5053650;28;20245;-67
2021/12/30 00:31:50;;;;;;;;;;;2.30;93.20;;;;;;5053648;28;20426;-67
2021/12/30 00:34:15;;;;;;;;;;;2.10;93.20;;;;;;5035696;28;19941;-67
2021/12/30 00:36:41;;;;;;;;;;;2.10;93.60;;;;;;5053506;28;20045;-67
2021/12/30 00:39:07;;;;;;;;;;;2.20;94.10;;;;;;5053551;28;19985;-67
2021/12/30 00:41:32;;;;;;;;;;;2.30;94.20;;;;;;5053506;28;19943;-67
2021/12/30 00:43:58;;;;;;;;;;;2.10;94.10;;;;;;5053506;28;19941;-67
2021/12/30 00:46:23;;;;;;;;;;;2.30;94.40;;;;;;5053398;28;19938;-67
2021/12/30 00:48:49;;;;;;;;;;;2.40;94.70;;;;;;5053417;28;19937;-67
2021/12/30 00:51:14;;;;;;;;;;;2.40;94.60;;;;;;5053266;28;20032;-67
2021/12/30 00:53:41;;;;;;;;;;;2.60;94.80;;;;;;5035515;28;20559;-67
2021/12/30 00:56:07;;;;;;;;;;;2.60;94.60;;;;;;5052811;28;19953;-66
2021/12/30 00:58:32;;;;;;;;;;;2.40;94.60;;;;;;5053278;28;20028;-66
2021/12/30 01:00:59;;;;;;;;;;;2.30;94.30;;;;;;5053188;28;20355;-67
2021/12/30 01:03:25;;;;;;;;;;;2.10;93.90;;;;;;5053193;28;19951;-67
2021/12/30 01:05:51;;;;;;;;;;;2.00;94.10;;;;;;5053040;28;19942;-67
2021/12/30 01:08:17;;;;;;;;;;;1.80;94.00;;;;;;5052890;28;20032;-67
2021/12/30 01:10:43;;;;;;;;;;;1.80;94.30;;;;;;5053039;28;20407;-67
2021/12/30 01:13:15;;;;;;;;;;;1.90;94.40;;;;;;5053092;28;19945;-67
2021/12/30 01:21:21;;;;;;;;;;;2.10;94.70;;;;;;5019189;28;19946;-67
2021/12/30 01:23:46;;;;;;;;;;;2.20;94.60;;;;;;5053005;28;19937;-67
2021/12/30 01:26:12;;;;;;;;;;;2.00;94.20;;;;;;5052894;28;19939;-67
2021/12/30 01:28:38;;;;;;;;;;;2.00;94.30;;;;;;5052863;28;19941;-67
2021/12/30 01:31:04;;;;;;;;;;;2.00;94.60;;;;;;5052837;28;20430;-67
2021/12/30 01:33:30;;;;;;;;;;;2.10;94.30;;;;;;5052867;28;19941;-67
2021/12/30 01:35:55;;;;;;;;;;;2.00;93.90;;;;;;5052905;28;19945;-67
2021/12/30 01:38:21;;;;;;;;;;;1.90;94.10;;;;;;5052808;28;20453;-67
2021/12/30 01:40:47;;;;;;;;;;;1.90;94.40;;;;;;5052819;28;19945;-67
2021/12/30 01:43:13;;;;;;;;;;;1.90;94.40;;;;;;5052763;28;19943;-67
2021/12/30 01:45:39;;;;;;;;;;;1.70;93.80;;;;;;5052735;28;19999;-67
2021/12/30 01:48:05;;;;;;;;;;;1.40;93.70;;;;;;5052771;28;19946;-67
2021/12/30 01:50:31;;;;;;;;;;;1.40;94.10;;;;;;5052658;28;19957;-67
2021/12/30 01:52:58;;;;;;;;;;;1.40;94.20;;;;;;5052699;28;20039;-67
2021/12/30 01:55:24;;;;;;;;;;;1.30;94.40;;;;;;5052682;28;19965;-67
2021/12/30 01:57:50;;;;;;;;;;;1.40;94.70;;;;;;5052659;28;20424;-67
2021/12/30 02:00:21;;;;;;;;;;;1.50;94.80;;;;;;5052644;28;19945;-67
2021/12/30 02:02:46;;;;;;;;;;;1.50;94.70;;;;;;5052614;28;19948;-67
2021/12/30 02:05:12;;;;;;;;;;;1.60;95.00;;;;;;5052568;28;19939;-67
2021/12/30 02:07:37;;;;;;;;;;;1.70;95.10;;;;;;5034745;28;19985;-67
2021/12/30 02:10:04;;;;;;;;;;;1.80;95.10;;;;;;5055880;28;19980;-67
2021/12/30 02:12:34;;;;;;;;;;;1.90;95.20;;;;;;5038390;28;20324;-66
2021/12/30 02:14:59;;;;;;;;;;;2.00;95.00;;;;;;5056302;28;19947;-67
2021/12/30 02:17:25;;;;;;;;;;;1.90;94.80;;;;;;5056256;28;19938;-67
2021/12/30 02:19:55;;;;;;;;;;;1.70;94.60;;;;;;5056200;28;19945;-67
2021/12/30 02:22:20;;;;;;;;;;;1.50;94.70;;;;;;5056178;28;19939;-67
2021/12/30 02:24:47;;;;;;;;;;;1.60;95.10;;;;;;5056115;28;20038;-67
2021/12/30 02:27:12;;;;;;;;;;;1.50;95.20;;;;;;5055955;28;19944;-67
2021/12/30 02:29:38;;;;;;;;;;;1.50;95.20;;;;;;5055961;28;20007;-67
2021/12/30 02:32:04;;;;;;;;;;;1.40;95.20;;;;;;5055963;28;19955;-67
2021/12/30 02:34:29;;;;;;;;;;;1.40;95.20;;;;;;5055763;28;19950;-67
2021/12/30 02:36:55;;;;;;;;;;;1.40;95.30;;;;;;5037993;28;19946;-67
2021/12/30 02:39:23;;;;;;;;;;;1.40;95.30;;;;;;5055855;28;19972;-67
2021/12/30 02:41:48;;;;;;;;;;;1.40;95.40;;;;;;5055846;28;19966;-67
2021/12/30 02:44:14;;;;;;;;;;;1.40;95.40;;;;;;5055779;28;20397;-67
2021/12/30 02:46:40;;;;;;;;;;;1.50;95.50;;;;;;5056028;28;19943;-67
2021/12/30 02:49:06;;;;;;;;;;;1.60;95.50;;;;;;5055680;28;19950;-67
2021/12/30 02:51:32;;;;;;;;;;;1.60;95.20;;;;;;5055511;28;19946;-67
2021/12/30 02:53:57;;;;;;;;;;;1.50;95.20;;;;;;5055583;28;20000;-67
2021/12/30 02:56:24;;;;;;;;;;;1.40;95.00;;;;;;5055527;28;19941;-67
2021/12/30 02:58:49;;;;;;;;;;;1.40;95.70;;;;;;5055486;28;20405;-67
2021/12/30 03:01:19;;;;;;;;;;;1.50;95.60;;;;;;5055453;28;19940;-67
2021/12/30 03:03:45;;;;;;;;;;;1.30;95.30;;;;;;5055440;28;19974;-67
2021/12/30 03:06:11;;;;;;;;;;;1.20;95.40;;;;;;5037489;28;19947;-67
2021/12/30 03:08:37;;;;;;;;;;;1.20;95.50;;;;;;5055008;28;19971;-67
2021/12/30 03:11:03;;;;;;;;;;;1.10;95.70;;;;;;5037302;28;19966;-67
2021/12/30 03:13:31;;;;;;;;;;;1.20;95.80;;;;;;5055256;28;19947;-67
2021/12/30 03:16:06;;;;;;;;;;;1.20;95.80;;;;;;5055189;28;19943;-67
2021/12/30 03:18:33;;;;;;;;;;;1.20;95.70;;;;;;5054970;28;20396;-67
2021/12/30 03:21:00;;;;;;;;;;;1.20;95.60;;;;;;5054763;28;20316;-67
2021/12/30 03:23:26;;;;;;;;;;;1.20;95.60;;;;;;5055067;28;19943;-67
2021/12/30 03:25:51;;;;;;;;;;;1.30;95.80;;;;;;5036994;28;20395;-67
2021/12/30 03:28:17;;;;;;;;;;;1.40;95.80;;;;;;5036937;28;20037;-67
2021/12/30 03:30:43;;;;;;;;;;;1.30;95.40;;;;;;5054981;28;19938;-67
2021/12/30 03:33:09;;;;;;;;;;;1.10;95.30;;;;;;5054827;28;19943;-67
2021/12/30 03:35:34;;;;;;;;;;;1.00;95.60;;;;;;5054765;28;19942;-67
2021/12/30 03:38:00;;;;;;;;;;;0.90;95.80;;;;;;5054647;28;20094;-67
2021/12/30 03:40:25;;;;;;;;;;;0.80;96.10;;;;;;5054665;28;19941;-67
2021/12/30 03:42:51;;;;;;;;;;;0.80;96.20;;;;;;5054584;28;19943;-67
2021/12/30 03:45:17;;;;;;;;;;;0.80;96.30;;;;;;5054611;28;19985;-67
2021/12/30 03:47:44;;;;;;;;;;;0.70;96.40;;;;;;5054528;28;20398;-67
2021/12/30 03:50:19;;;;;;;;;;;0.70;96.50;;;;;;5054451;28;19987;-67
2021/12/30 03:52:45;;;;;;;;;;;0.70;96.50;;;;;;5054459;28;19939;-67
2021/12/30 03:55:10;;;;;;;;;;;0.70;96.50;;;;;;5054442;28;20027;-67
2021/12/30 03:57:36;;;;;;;;;;;0.70;96.50;;;;;;5054367;28;20045;-67
2021/12/30 04:00:03;;;;;;;;;;;0.70;96.60;;;;;;5054347;28;19952;-67
2021/12/30 04:02:29;;;;;;;;;;;0.90;96.70;;;;;;5054227;28;19942;-67
2021/12/30 04:04:54;;;;;;;;;;;0.90;96.70;;;;;;5054192;28;20003;-67
2021/12/30 04:07:20;;;;;;;;;;;1.00;96.70;;;;;;5054087;28;19979;-67
2021/12/30 04:09:45;;;;;;;;;;;1.10;96.70;;;;;;5053827;28;19970;-67
2021/12/30 04:12:11;;;;;;;;;;;1.00;96.60;;;;;;5054065;28;20008;-67
2021/12/30 04:14:37;;;;;;;;;;;1.10;96.60;;;;;;5036108;28;19944;-67
2021/12/30 04:17:03;;;;;;;;;;;1.20;96.50;;;;;;5053944;28;20406;-67
2021/12/30 04:19:28;;;;;;;;;;;1.00;96.30;;;;;;5053913;28;19975;-67
2021/12/30 04:21:56;;;;;;;;;;;1.10;96.20;;;;;;5053894;28;19936;-67
2021/12/30 04:24:21;;;;;;;;;;;1.20;96.20;;;;;;5035978;28;19945;-67
2021/12/30 04:26:47;;;;;;;;;;;1.30;96.10;;;;;;5053685;28;19944;-67
2021/12/30 04:29:13;;;;;;;;;;;1.30;96.00;;;;;;5053803;28;19938;-67
2021/12/30 04:31:38;;;;;;;;;;;1.20;96.10;;;;;;5052913;28;19996;-67
2021/12/30 04:34:04;;;;;;;;;;;1.10;95.90;;;;;;5053697;28;19983;-67
2021/12/30 04:36:29;;;;;;;;;;;1.00;95.70;;;;;;5053668;28;20356;-67
2021/12/30 04:38:55;;;;;;;;;;;1.00;95.60;;;;;;5053565;28;19990;-67
2021/12/30 04:41:20;;;;;;;;;;;0.90;95.70;;;;;;5053516;28;19946;-67
2021/12/30 04:43:46;;;;;;;;;;;0.90;95.80;;;;;;5053505;28;19941;-67
2021/12/30 04:46:13;;;;;;;;;;;0.90;95.80;;;;;;5053488;28;20034;-67
2021/12/30 04:48:38;;;;;;;;;;;1.00;96.00;;;;;;5053493;28;19946;-67
2021/12/30 04:51:04;;;;;;;;;;;1.10;96.10;;;;;;5053356;28;19961;-67
2021/12/30 04:53:29;;;;;;;;;;;1.20;96.00;;;;;;5053421;28;20315;-67
2021/12/30 04:55:55;;;;;;;;;;;1.20;95.90;;;;;;5053626;28;20407;-67
2021/12/30 04:58:20;;;;;;;;;;;1.10;95.70;;;;;;5053601;28;19937;-67
2021/12/30 05:00:46;;;;;;;;;;;1.10;95.70;;;;;;5053240;28;19953;-67
2021/12/30 05:03:13;;;;;;;;;;;1.20;95.80;;;;;;5035343;28;20036;-67
2021/12/30 05:05:44;;;;;;;;;;;1.00;95.40;;;;;;5053198;28;20055;-67
2021/12/30 05:08:09;;;;;;;;;;;1.00;95.60;;;;;;5062563;22;19943;-66
2021/12/30 05:10:35;;;;;;;;;;;0.70;95.20;;;;;;5073069;28;19967;-66
2021/12/30 05:13:02;;;;;;;;;;;0.80;95.40;;;;;;5073193;28;20347;-67
2021/12/30 05:15:28;;;;;;;;;;;0.80;95.50;;;;;;5073165;28;20394;-67
2021/12/30 05:17:54;;;;;;;;;;;0.80;95.50;;;;;;5071808;28;19952;-67
2021/12/30 05:20:19;;;;;;;;;;;0.90;95.70;;;;;;5073106;28;19935;-67
2021/12/30 05:22:45;;;;;;;;;;;1.00;95.70;;;;;;5073027;28;19970;-67
2021/12/30 05:25:11;;;;;;;;;;;1.10;95.80;;;;;;5073047;28;19946;-67
2021/12/30 05:27:37;;;;;;;;;;;1.30;95.90;;;;;;5071602;28;19938;-67
2021/12/30 05:30:07;;;;;;;;;;;1.30;95.70;;;;;;5072934;28;19956;-67
2021/12/30 05:32:32;;;;;;;;;;;1.20;95.70;;;;;;5072858;28;20046;-67
2021/12/30 05:34:58;;;;;;;;;;;1.30;95.80;;;;;;5072921;28;19988;-67
2021/12/30 05:37:23;;;;;;;;;;;1.30;96.10;;;;;;5072920;28;19939;-67
2021/12/30 05:39:49;;;;;;;;;;;1.20;96.20;;;;;;5072899;28;19941;-67
2021/12/30 05:42:14;;;;;;;;;;;1.20;96.30;;;;;;5073660;28;19943;-67
2021/12/30 05:44:40;;;;;;;;;;;1.20;96.40;;;;;;5076955;28;19981;-67
2021/12/30 05:47:06;;;;;;;;;;;1.10;96.40;;;;;;5076901;28;20462;-67
2021/12/30 05:49:32;;;;;;;;;;;1.10;96.50;;;;;;5076790;28;19993;-67
2021/12/30 05:51:57;;;;;;;;;;;1.00;96.50;;;;;;5076798;28;19944;-67
2021/12/30 05:54:23;;;;;;;;;;;0.90;96.60;;;;;;5075788;28;20310;-67
2021/12/30 05:56:48;;;;;;;;;;;1.00;96.70;;;;;;5076272;28;19966;-67
2021/12/30 05:59:14;;;;;;;;;;;1.00;96.70;;;;;;5076391;28;19960;-67
2021/12/30 06:01:39;;;;;;;;;;;1.00;96.80;;;;;;5076591;28;20322;-67
2021/12/30 06:04:05;;;;;;;;;;;1.00;96.80;;;;;;5076513;28;19983;-66
2021/12/30 06:06:30;;;;;;;;;;;1.00;96.80;;;;;;5076091;28;19935;-66
2021/12/30 06:08:56;;;;;;;;;;;1.10;96.80;;;;;;5074930;28;20005;-67
2021/12/30 06:11:21;;;;;;;;;;;1.20;96.90;;;;;;5076276;28;19975;-66
2021/12/30 06:13:47;;;;;;;;;;;1.10;96.90;;;;;;5076265;28;19951;-66
2021/12/30 06:16:12;;;;;;;;;;;1.00;96.90;;;;;;5076256;28;19944;-66
2021/12/30 06:18:38;;;;;;;;;;;1.00;96.90;;;;;;5076136;28;19944;-66
2021/12/30 06:21:04;;;;;;;;;;;1.00;97.00;;;;;;5075826;28;19947;-67
2021/12/30 06:23:29;;;;;;;;;;;0.90;97.00;;;;;;5075851;28;19940;-66
2021/12/30 06:25:55;;;;;;;;;;;0.90;97.00;;;;;;5075278;28;20038;-67
2021/12/30 06:28:20;;;;;;;;;;;1.00;97.00;;;;;;5075860;28;19948;-66
2021/12/30 06:30:46;;;;;;;;;;;1.00;97.10;;;;;;5075672;28;20064;-67
2021/12/30 06:33:11;;;;;;;;;;;1.00;97.10;;;;;;5073228;28;20394;-67
2021/12/30 06:35:37;;;;;;;;;;;1.10;97.10;;;;;;5070799;28;19983;-67
2021/12/30 06:38:03;;;;;;;;;;;1.20;97.10;;;;;;5072074;28;19944;-67
2021/12/30 06:40:28;;;;;;;;;;;1.20;97.10;;;;;;5058903;28;19957;-68
2021/12/30 06:42:54;;;;;;;;;;;1.20;97.10;;;;;;5069837;28;19948;-68
2021/12/30 06:45:20;;;;;;;;;;;1.20;97.10;;;;;;5071729;28;20037;-68
2021/12/30 06:47:46;;;;;;;;;;;1.30;97.20;;;;;;5066231;28;19954;-68
2021/12/30 06:50:13;;;;;;;;;;;1.40;97.20;;;;;;5073191;28;20011;-68
2021/12/30 06:52:39;;;;;;;;;;;1.50;97.20;;;;;;5060719;28;19942;-69
2021/12/30 06:55:05;;;;;;;;;;;1.70;97.20;;;;;;5065019;28;20309;-68
2021/12/30 06:57:30;;;;;;;;;;;1.60;97.10;;;;;;5063659;28;20040;-68
2021/12/30 06:59:56;;;;;;;;;;;1.50;97.10;;;;;;5068696;28;19983;-67
2021/12/30 07:02:22;;;;;;;;;;;1.50;97.20;;;;;;5069095;28;19953;-68
2021/12/30 07:04:48;;;;;;;;;;;1.40;97.10;;;;;;5068190;28;20054;-68
2021/12/30 07:07:13;;;;;;;;;;;1.40;97.20;;;;;;5065287;28;20480;-67
2021/12/30 07:09:39;;;;;;;;;;;1.40;97.10;;;;;;5066401;28;19973;-68
2021/12/30 07:12:05;;;;;;;;;;;1.40;97.10;;;;;;5066335;28;19947;-68
2021/12/30 07:14:31;;;;;;;;;;;1.40;97.20;;;;;;5066761;28;19953;-68
2021/12/30 07:16:56;;;;;;;;;;;1.50;97.20;;;;;;5073301;28;20086;-68
2021/12/30 07:19:22;;;;;;;;;;;1.50;97.20;;;;;;5068578;28;19953;-68
2021/12/30 07:21:50;;;;;;;;;;;1.50;97.20;;;;;;5073986;28;19947;-68
2021/12/30 07:24:16;;;;;;;;;;;1.70;97.30;;;;;;5071861;28;20059;-68
2021/12/30 07:26:41;;;;;;;;;;;1.80;97.30;;;;;;5071029;28;20044;-68
2021/12/30 07:29:07;;;;;;;;;;;1.90;97.30;;;;;;5069144;28;19998;-68
2021/12/30 07:31:33;;;;;;;;;;;1.90;97.30;;;;;;5072747;28;20440;-68
2021/12/30 07:33:58;;;;;;;;;;;1.90;97.20;;;;;;5067039;28;20399;-68
2021/12/30 07:36:24;;;;;;;;;;;2.00;97.20;;;;;;5065936;28;19952;-67
2021/12/30 07:38:50;;;;;;;;;;;2.10;97.20;;;;;;5065936;28;20329;-68
2021/12/30 07:41:16;;;;;;;;;;;2.10;97.20;;;;;;5063426;28;19974;-68
2021/12/30 07:43:41;;;;;;;;;;;2.00;97.10;;;;;;5073998;28;19952;-68
2021/12/30 07:46:09;;;;;;;;;;;2.00;97.10;;;;;;5068122;28;19995;-68
2021/12/30 07:48:35;;;;;;;;;;;2.10;97.20;;;;;;5066571;28;19968;-67
2021/12/30 07:51:00;;;;;;;;;;;2.00;97.10;;;;;;5072803;28;19964;-68
2021/12/30 07:53:26;;;;;;;;;;;2.10;97.10;;;;;;5069182;28;20414;-67
2021/12/30 07:55:52;;;;;;;;;;;2.10;97.10;;;;;;5064606;28;19968;-68
2021/12/30 07:58:17;;;;;;;;;;;2.00;97.10;;;;;;5066085;28;20032;-68
2021/12/30 08:00:43;;;;;;;;;;;2.00;97.10;;;;;;5072331;28;19946;-68
2021/12/30 08:03:08;;;;;;;;;;;2.20;97.10;;;;;;5067667;28;20045;-68
2021/12/30 08:05:34;;;;;;;;;;;2.30;97.20;;;;;;5066857;28;19944;-68
2021/12/30 08:07:59;;;;;;;;;;;2.40;97.10;;;;;;5073424;28;19960;-68
2021/12/30 08:10:25;;;;;;;;;;;2.50;97.10;;;;;;5071809;28;19976;-68
2021/12/30 08:12:52;;;;;;;;;;;2.50;97.20;;;;;;5067162;28;20359;-68
2021/12/30 08:15:19;;;;;;;;;;;2.70;97.20;;;;;;5066418;28;20434;-68
2021/12/30 08:17:45;;;;;;;;;;;2.60;97.20;;;;;;5068334;28;19955;-68
2021/12/30 08:20:11;;;;;;;;;;;2.70;97.10;;;;;;5071690;28;20527;-68
2021/12/30 08:22:37;;;;;;;;;;;2.60;97.00;;;;;;5067468;28;20398;-68
2021/12/30 08:25:04;;;;;;;;;;;2.50;96.90;;;;;;5093698;28;19940;-67
2021/12/30 08:27:29;;;;;;;;;;;2.50;96.90;;;;;;5076108;28;19938;-68
2021/12/30 08:29:55;;;;;;;;;;;2.50;96.90;;;;;;5066779;28;20503;-68
2021/12/30 08:32:20;;;;;;;;;;;2.50;96.90;;;;;;5066267;28;20343;-68
2021/12/30 08:34:46;;;;;;;;;;;2.60;96.90;;;;;;5067928;28;19943;-68
2021/12/30 08:37:12;;;;;;;;;;;2.50;96.80;;;;;;5068918;28;19948;-68
2021/12/30 08:39:39;;;;;;;;;;;2.40;96.80;;;;;;5068464;28;20404;-68
2021/12/30 08:42:05;;;;;;;;;;;2.40;96.80;;;;;;5070082;28;19986;-68
2021/12/30 08:44:31;;;;;;;;;;;2.50;96.90;;;;;;5067024;28;19983;-68
2021/12/30 08:46:56;;;;;;;;;;;2.50;96.90;;;;;;5069394;28;19946;-68
2021/12/30 08:49:22;;;;;;;;;;;2.60;96.90;;;;;;5067532;28;20402;-68
2021/12/30 08:51:48;;;;;;;;;;;2.60;96.90;;;;;;5065758;28;19969;-68
2021/12/30 08:54:13;;;;;;;;;;;2.60;96.90;;;;;;5067085;28;20367;-68
2021/12/30 08:56:39;;;;;;;;;;;2.60;96.90;;;;;;5068290;28;19942;-68
2021/12/30 08:59:05;;;;;;;;;;;2.70;96.90;;;;;;5067689;28;19951;-68
2021/12/30 09:01:30;;;;;;;;;;;2.70;97.00;;;;;;5070232;28;19952;-67
2021/12/30 09:03:56;;;;;;;;;;;2.70;97.00;;;;;;5071894;28;20417;-67
2021/12/30 09:06:21;;;;;;;;;;;2.70;97.00;;;;;;5071050;28;19947;-67
2021/12/30 09:08:47;;;;;;;;;;;2.90;97.00;;;;;;5071198;28;19989;-67
2021/12/30 09:11:13;;;;;;;;;;;3.00;97.10;;;;;;5063099;28;19964;-67
2021/12/30 09:13:38;;;;;;;;;;;3.10;97.10;;;;;;5054622;28;19956;-66
2021/12/30 09:16:04;;;;;;;;;;;3.20;97.20;;;;;;5067461;28;19956;-67
2021/12/30 09:18:30;;;;;;;;;;;3.20;97.10;;;;;;5070821;28;20058;-68
2021/12/30 09:20:55;;;;;;;;;;;3.30;97.20;;;;;;5055996;28;20404;-66
2021/12/30 09:23:21;;;;;;;;;;;3.40;97.20;;;;;;5070341;28;19958;-67
2021/12/30 09:25:46;;;;;;;;;;;3.60;97.20;;;;;;5071816;28;19985;-67
2021/12/30 09:28:12;;;;;;;;;;;3.80;97.30;;;;;;5070203;28;19968;-67
2021/12/30 09:30:42;;;;;;;;;;;4.10;97.40;;;;;;5068292;28;20014;-67
2021/12/30 09:33:08;;;;;;;;;;;4.40;97.30;;;;;;5072043;28;19982;-67
2021/12/30 09:35:34;;;;;;;;;;;4.60;97.40;;;;;;5056736;28;19993;-67
2021/12/30 09:38:00;;;;;;;;;;;4.70;97.30;;;;;;5071633;28;19982;-67
2021/12/30 09:40:26;;;;;;;;;;;4.60;97.10;;;;;;5066937;28;19968;-67
2021/12/30 09:42:54;;;;;;;;;;;4.50;96.90;;;;;;5068185;28;19954;-67
2021/12/30 09:45:20;;;;;;;;;;;4.50;96.40;;;;;;5069610;28;19948;-67
2021/12/30 09:47:50;;;;;;;;;;;4.40;96.00;;;;;;5053296;28;20063;-67
2021/12/30 09:50:16;;;;;;;;;;;4.40;95.90;;;;;;5063916;28;19977;-67
2021/12/30 09:52:42;;;;;;;;;;;4.40;95.80;;;;;;5064950;28;19946;-67
2021/12/30 09:55:08;;;;;;;;;;;4.50;95.90;;;;;;5068770;28;19978;-66
2021/12/30 09:57:33;;;;;;;;;;;4.50;95.80;;;;;;5064032;28;19947;-67
2021/12/30 09:59:59;;;;;;;;;;;4.60;95.70;;;;;;5060841;28;20035;-67
2021/12/30 10:02:25;;;;;;;;;;;4.70;95.70;;;;;;5061985;28;19988;-67
2021/12/30 10:05:04;;;;;;;;;;;4.70;95.50;;;;;;5063549;28;19995;-67
2021/12/30 10:07:29;;;;;;;;;;;4.80;95.50;;;;;;5064628;28;19944;-69
2021/12/30 10:10:00;;;;;;;;;;;4.90;95.50;;;;;;5064557;28;19983;-67
2021/12/30 10:12:52;;;;;;;;;;;4.80;95.20;;;;;;5066584;28;19939;-66
2021/12/30 10:15:19;;;;;;;;;;;4.90;95.20;;;;;;5057799;28;20440;-67
2021/12/30 10:17:52;;;;;;;;;;;4.90;95.20;;;;;;5065147;28;19967;-67
2021/12/30 10:20:25;;;;;;;;;;;4.90;95.40;;;;;;5062093;28;19941;-66
2021/12/30 10:22:51;;;;;;;;;;;5.00;95.50;;;;;;5064290;28;19947;-67
2021/12/30 10:25:26;;;;;;;;;;;5.20;95.60;;;;;;5068753;28;20648;-66
2021/12/30 10:27:51;;;;;;;;;;;5.10;95.30;;;;;;5066909;28;19947;-66
2021/12/30 10:30:33;;;;;;;;;;;5.20;95.20;;;;;;5073029;28;19967;-66
2021/12/30 10:33:09;;;;;;;;;;;5.20;95.00;;;;;;5072169;28;19971;-67
2021/12/30 10:35:35;;;;;;;;;;;5.30;95.10;;;;;;5073483;28;19953;-67
2021/12/30 10:38:03;;;;;;;;;;;5.60;95.30;;;;;;5072353;28;19947;-67
2021/12/30 10:40:30;;;;;;;;;;;5.90;95.20;;;;;;5085622;28;19954;-67
2021/12/30 10:43:17;;;;;;;;;;;6.20;95.00;;;;;;5072121;28;19944;-66
2021/12/30 10:45:42;;;;;;;;;;;6.40;94.60;;;;;;5075044;28;19940;-66
2021/12/30 10:48:08;;;;;;;;;;;6.50;93.60;;;;;;5072451;28;19941;-66
2021/12/30 10:50:34;;;;;;;;;;;6.50;93.00;;;;;;5066116;28;19940;-66
2021/12/30 10:53:00;;;;;;;;;;;6.60;93.50;;;;;;5067408;28;19946;-67
2021/12/30 10:55:26;;;;;;;;;;;6.70;93.10;;;;;;5073024;28;20748;-66
2021/12/30 10:57:52;;;;;;;;;;;6.60;92.80;;;;;;5072263;28;21495;-67
2021/12/30 11:00:28;;;;;;;;;;;6.70;93.10;;;;;;5069404;28;19975;-67
2021/12/30 11:03:13;;;;;;;;;;;6.80;92.60;;;;;;5065041;28;20041;-67
2021/12/30 11:05:39;;;;;;;;;;;7.00;93.00;;;;;;5063853;28;20358;-67
2021/12/30 11:08:04;;;;;;;;;;;7.00;92.10;;;;;;5072544;28;19948;-67
2021/12/30 11:10:31;;;;;;;;;;;6.80;92.20;;;;;;5064382;28;19965;-67
2021/12/30 11:13:08;;;;;;;;;;;6.90;92.50;;;;;;5070618;28;19953;-67
2021/12/30 11:15:33;;;;;;;;;;;7.10;92.50;;;;;;5069329;28;19956;-67
2021/12/30 11:18:06;;;;;;;;;;;7.20;92.30;;;;;;5070848;28;19999;-67
2021/12/30 11:20:36;;;;;;;;;;;7.20;92.30;;;;;;5070215;28;19956;-67
2021/12/30 11:23:02;;;;;;;;;;;7.30;92.30;;;;;;5072970;28;19952;-67
2021/12/30 11:25:28;;;;;;;;;;;7.40;91.90;;;;;;5074170;28;20031;-67
2021/12/30 11:27:53;;;;;;;;;;;7.40;91.40;;;;;;5074865;28;20412;-67
2021/12/30 11:30:19;;;;;;;;;;;7.60;90.60;;;;;;5073526;28;19960;-67
2021/12/30 11:32:48;;;;;;;;;;;7.60;90.30;;;;;;5074813;28;19938;-67
2021/12/30 11:35:14;;;;;;;;;;;7.80;90.70;;;;;;5074778;28;19944;-67
2021/12/30 11:37:40;;;;;;;;;;;7.80;89.70;;;;;;5073543;28;20050;-67
2021/12/30 11:40:07;;;;;;;;;;;8.00;89.70;;;;;;5074401;28;20425;-67
2021/12/30 11:42:37;;;;;;;;;;;8.30;89.70;;;;;;5074508;28;19968;-67
2021/12/30 11:45:03;;;;;;;;;;;8.50;88.40;;;;;;5074656;28;19974;-65
2021/12/30 11:47:32;;;;;;;;;;;8.90;88.00;;;;;;5074605;28;19963;-65
2021/12/30 11:49:58;;;;;;;;;;;9.40;86.60;;;;;;5072907;28;19959;-64
2021/12/30 11:52:43;;;;;;;;;;;9.50;85.10;;;;;;5074526;28;19943;-67
2021/12/30 11:55:41;;;;;;;;;;;9.60;84.50;;;;;;5074434;28;20378;-67
2021/12/30 11:58:25;;;;;;;;;;;9.70;84.30;;;;;;5051478;28;19951;-65
2021/12/30 12:00:52;;;;;;;;;;;9.70;84.30;;;;;;5074295;28;19941;-67
2021/12/30 12:03:30;;;;;;;;;;;9.80;83.30;;;;;;5074318;28;19936;-66
2021/12/30 12:05:56;;;;;;;;;;;9.60;84.20;;;;;;5074247;28;19949;-67
2021/12/30 12:08:26;;;;;;;;;;;9.40;83.70;;;;;;5073943;28;20438;-67
2021/12/30 12:11:27;;;;;;;;;;;9.30;84.90;;;;;;5074044;28;20062;-67
2021/12/30 12:13:54;;;;;;;;;;;9.30;83.80;;;;;;5023047;28;19988;-67
2021/12/30 12:16:38;;;;;;;;;;;9.30;83.70;;;;;;5045851;28;19948;-67
2021/12/30 12:19:07;;;;;;;;;;;9.30;84.30;;;;;;5053882;28;20462;-67
2021/12/30 12:21:41;;;;;;;;;;;9.70;83.50;;;;;;5053780;28;19943;-66
2021/12/30 12:24:21;;;;;;;;;;;10.00;81.80;;;;;;5057060;28;20101;-67
2021/12/30 12:26:51;;;;;;;;;;;10.30;81.80;;;;;;5073059;28;19967;-66
2021/12/30 12:29:22;;;;;;;;;;;10.40;81.00;;;;;;5073278;28;19946;-67
2021/12/30 12:31:55;;;;;;;;;;;10.60;80.10;;;;;;5073377;28;19976;-67
2021/12/30 12:34:41;;;;;;;;;;;11.00;80.20;;;;;;5073551;28;19992;-67
2021/12/30 12:37:26;;;;;;;;;;;11.10;78.80;;;;;;5073624;28;19954;-67
2021/12/30 12:39:56;;;;;;;;;;;10.90;77.50;;;;;;5073547;28;19950;-67
2021/12/30 12:42:42;;;;;;;;;;;11.10;77.20;;;;;;5072386;28;20418;-64
2021/12/30 12:45:21;;;;;;;;;;;11.40;75.20;;;;;;5073135;28;20032;-65
2021/12/30 12:47:47;;;;;;;;;;;11.80;74.10;;;;;;5073337;28;19996;-65
2021/12/30 12:50:13;;;;;;;;;;;11.80;73.70;;;;;;5073262;28;20071;-65
2021/12/30 12:52:43;;;;;;;;;;;11.40;74.60;;;;;;5072626;28;20394;-65
2021/12/30 12:55:13;;;;;;;;;;;11.10;76.30;;;;;;5073310;28;19943;-65
2021/12/30 12:57:41;;;;;;;;;;;11.10;76.10;;;;;;5072906;28;20379;-65
2021/12/30 13:00:08;;;;;;;;;;;11.30;76.50;;;;;;5073145;28;19947;-64
2021/12/30 13:02:33;;;;;;;;;;;11.30;76.30;;;;;;5072628;28;19944;-66
2021/12/30 13:05:06;;;;;;;;;;;11.50;76.30;;;;;;5072993;28;20455;-64
2021/12/30 13:07:33;;;;;;;;;;;11.90;75.80;;;;;;5073086;28;20431;-65
2021/12/30 13:09:58;;;;;;;;;;;12.20;74.20;;;;;;5063227;22;20070;-64
2021/12/30 13:12:26;;;;;;;;;;;12.40;73.80;;;;;;5052622;28;20514;-65
2021/12/30 13:14:51;;;;;;;;;;;12.50;73.60;;;;;;5053004;28;20324;-65
2021/12/30 13:17:17;;;;;;;;;;;12.70;72.90;;;;;;5053058;28;19974;-65
2021/12/30 13:19:45;;;;;;;;;;;12.70;72.70;;;;;;5052924;28;19982;-65
2021/12/30 13:22:23;;;;;;;;;;;12.40;72.60;;;;;;5052986;28;19948;-64
2021/12/30 13:24:52;;;;;;;;;;;11.90;73.70;;;;;;5052937;28;20414;-64
2021/12/30 13:27:18;;;;;;;;;;;11.60;75.00;;;;;;5052696;28;19944;-65
2021/12/30 13:29:47;;;;;;;;;;;11.30;76.80;;;;;;5052428;28;20002;-65
2021/12/30 13:32:14;;;;;;;;;;;11.10;76.90;;;;;;5052577;28;19950;-64
2021/12/30 13:34:52;;;;;;;;;;;10.90;78.40;;;;;;5052785;28;19945;-64
2021/12/30 13:37:19;;;;;;;;;;;10.60;79.80;;;;;;5053052;28;19930;-64
2021/12/30 13:39:45;;;;;;;;;;;10.40;80.30;;;;;;5034850;28;19965;-64
2021/12/30 13:42:12;;;;;;;;;;;10.50;80.40;;;;;;5052779;28;20035;-65
2021/12/30 13:44:38;;;;;;;;;;;10.60;79.30;;;;;;5052561;28;19991;-65
2021/12/30 13:47:19;;;;;;;;;;;10.60;78.90;;;;;;5052494;28;19945;-66
2021/12/30 13:49:45;;;;;;;;;;;10.40;79.70;;;;;;5052352;28;19943;-66
2021/12/30 13:52:11;;;;;;;;;;;10.30;81.00;;;;;;5052470;28;19952;-66
2021/12/30 13:54:37;;;;;;;;;;;10.10;81.70;;;;;;5052300;28;19970;-66
2021/12/30 13:57:03;;;;;;;;;;;9.80;82.60;;;;;;5052182;28;20374;-65
2021/12/30 13:59:29;;;;;;;;;;;9.40;83.50;;;;;;5052241;28;20300;-65
2021/12/30 14:01:56;;;;;;;;;;;9.00;85.00;;;;;;5052262;28;19935;-65
2021/12/30 14:04:28;;;;;;;;;;;8.80;86.00;;;;;;5054820;28;19948;-66
2021/12/30 14:06:58;;;;;;;;;;;8.70;86.30;;;;;;5038218;28;20358;-66
2021/12/30 14:09:23;;;;;;;;;;;8.50;87.00;;;;;;5055812;28;19971;-65
2021/12/30 14:11:50;;;;;;;;;;;8.50;87.50;;;;;;5071468;28;19976;-66
2021/12/30 14:14:17;;;;;;;;;;;8.50;87.80;;;;;;5055965;28;19940;-66
2021/12/30 14:16:44;;;;;;;;;;;8.30;87.60;;;;;;5056070;28;19971;-65
2021/12/30 14:19:10;;;;;;;;;;;8.20;88.10;;;;;;5055379;28;19943;-66
2021/12/30 14:21:39;;;;;;;;;;;7.90;88.60;;;;;;5055747;28;19955;-66
2021/12/30 14:24:15;;;;;;;;;;;7.70;89.50;;;;;;5055652;28;19941;-66
2021/12/30 14:26:44;;;;;;;;;;;7.60;90.20;;;;;;5055470;28;19939;-66
2021/12/30 14:29:15;;;;;;;;;;;7.60;90.40;;;;;;5054735;28;19948;-66
2021/12/30 14:31:43;;;;;;;;;;;7.60;90.20;;;;;;5055594;28;19967;-66
2021/12/30 14:34:11;;;;;;;;;;;7.30;90.40;;;;;;5055487;28;19998;-66